Terminal Aerodrome Forecast
Issued by NWS

Home | Current Version | Previous Version | Text Only | Print | Product List | Glossary On
Versions: 1 2 3 4 5 6 7 8 9 10 11 12 13
556
FTUS42 TJSJ 081135
TAFIST
TAF
TIST 081135Z 0812/0912 11008KT P6SM FEW025
     FM081300 13010KT P6SM FEW030 FEW500
     FM082300 10008KT P6SM FEW025=

USA.gov is the U.S. government's official web portal to all federal, state and local government web resources and services.